Time;durP1;ratioP1;P1;durP2;ratioP2;P2;SDS_P1;SDS_P2;PMS_P1;PMS_P2;Temp;Humidity;BMP_temperature;BMP_pressure;BME280_temperature;BME280_humidity;BME280_pressure;Samples;Min_cycle;Max_cycle;Signal;HPM_P1;HPM_P2
2021/12/20 00:01:54;;;;;;;0.40;0.40;;;1.20;81.40;;;;;;5073580;28;20189;-68
2021/12/20 00:04:20;;;;;;;0.40;0.40;;;1.20;81.70;;;;;;5073652;28;20543;-68
2021/12/20 00:06:46;;;;;;;0.37;0.37;;;1.10;82.00;;;;;;5073752;28;20177;-68
2021/12/20 00:09:11;;;;;;;0.53;0.53;;;1.10;81.50;;;;;;5073506;28;20692;-68
2021/12/20 00:11:37;;;;;;;0.50;0.50;;;1.00;81.30;;;;;;5073687;28;20400;-68
2021/12/20 00:14:03;;;;;;;0.30;0.30;;;1.00;82.40;;;;;;5073517;28;20533;-68
2021/12/20 00:16:28;;;;;;;0.40;0.40;;;0.90;82.70;;;;;;5072256;28;20178;-68
2021/12/20 00:18:54;;;;;;;0.40;0.40;;;0.80;83.20;;;;;;5073388;28;20176;-68
2021/12/20 00:21:20;;;;;;;0.40;0.40;;;0.70;83.60;;;;;;5072993;28;20169;-68
2021/12/20 00:23:45;;;;;;;0.30;0.30;;;0.70;84.20;;;;;;5073350;28;20702;-68
2021/12/20 00:26:11;;;;;;;0.40;0.40;;;0.60;85.00;;;;;;5073659;28;20180;-68
2021/12/20 00:28:38;;;;;;;0.50;0.50;;;0.40;85.30;;;;;;5073325;28;20166;-68
2021/12/20 00:31:04;;;;;;;0.40;0.40;;;0.30;86.00;;;;;;5073402;28;20161;-68
2021/12/20 00:33:33;;;;;;;0.30;0.30;;;0.20;86.40;;;;;;5073600;28;20200;-68
2021/12/20 00:36:00;;;;;;;0.40;0.40;;;0.10;86.80;;;;;;5073538;28;20165;-68
2021/12/20 00:41:10;;;;;;;0.40;0.40;;;-0.20;87.90;;;;;;5073503;28;20649;-68
2021/12/20 00:43:35;;;;;;;0.30;0.30;;;-0.30;88.70;;;;;;5073307;28;20288;-68
2021/12/20 00:46:01;;;;;;;0.40;0.40;;;-0.30;89.20;;;;;;5073463;28;20169;-68
2021/12/20 00:48:28;;;;;;;0.47;0.47;;;-0.30;89.50;;;;;;5073395;28;20185;-67
2021/12/20 00:50:53;;;;;;;0.40;0.40;;;-0.40;89.90;;;;;;5073159;28;20546;-68
2021/12/20 00:53:19;;;;;;;0.50;0.50;;;-0.40;90.00;;;;;;5073117;28;20190;-68
2021/12/20 00:55:45;;;;;;;0.47;0.47;;;-0.50;90.10;;;;;;5073078;28;20170;-68
2021/12/20 00:58:10;;;;;;;0.40;0.40;;;-0.50;90.30;;;;;;5073197;28;20165;-68
2021/12/20 01:00:39;;;;;;;0.40;0.40;;;-0.50;90.60;;;;;;5073184;28;20185;-68
2021/12/20 01:03:06;;;;;;;0.40;0.40;;;-0.60;90.70;;;;;;5072950;28;20193;-68
2021/12/20 01:05:34;;;;;;;0.40;0.40;;;-0.60;90.90;;;;;;5073203;28;20176;-68
2021/12/20 01:08:02;;;;;;;0.40;0.40;;;-0.60;91.00;;;;;;5072983;28;20173;-68
2021/12/20 01:10:29;;;;;;;0.50;0.50;;;-0.60;91.00;;;;;;5072956;28;20162;-68
2021/12/20 01:12:58;;;;;;;0.50;0.50;;;-0.50;91.10;;;;;;5073111;28;20228;-68
2021/12/20 01:15:32;;;;;;;0.30;0.30;;;-0.50;91.10;;;;;;5073009;28;20246;-68
2021/12/20 01:17:58;;;;;;;0.50;0.50;;;-0.50;91.10;;;;;;5073113;28;20585;-68
2021/12/20 01:20:24;;;;;;;0.40;0.40;;;-0.50;91.10;;;;;;5073097;28;20199;-68
2021/12/20 01:22:50;;;;;;;0.40;0.40;;;-0.50;91.20;;;;;;5072874;28;20197;-68
2021/12/20 01:25:17;;;;;;;0.47;0.47;;;-0.60;91.10;;;;;;5072893;28;20174;-68
2021/12/20 01:27:43;;;;;;;0.60;0.60;;;-0.60;91.30;;;;;;5073058;28;20216;-68
2021/12/20 01:30:12;;;;;;;0.50;0.50;;;-0.60;91.30;;;;;;5072764;28;20177;-68
2021/12/20 01:32:38;;;;;;;0.40;0.40;;;-0.60;91.50;;;;;;5074608;28;20554;-68
2021/12/20 01:35:05;;;;;;;0.30;0.30;;;-0.60;91.60;;;;;;5076338;28;20698;-68
2021/12/20 01:37:30;;;;;;;0.30;0.30;;;-0.60;91.50;;;;;;5076371;28;20319;-68
2021/12/20 01:39:58;;;;;;;0.40;0.40;;;-0.60;91.50;;;;;;5076218;28;20257;-68
2021/12/20 01:42:25;;;;;;;0.40;0.40;;;-0.60;91.60;;;;;;5076313;28;20280;-68
2021/12/20 01:44:55;;;;;;;0.50;0.50;;;-0.60;91.80;;;;;;5076271;28;20668;-67
2021/12/20 01:47:22;;;;;;;0.30;0.30;;;-0.60;91.70;;;;;;5076548;28;20599;-68
2021/12/20 01:50:01;;;;;;;0.40;0.40;;;-0.60;91.30;;;;;;5075928;28;20539;-68
2021/12/20 01:52:30;;;;;;;0.40;0.40;;;-0.80;91.10;;;;;;5076079;28;20666;-68
2021/12/20 01:54:55;;;;;;;0.40;0.40;;;-1.00;91.70;;;;;;5076288;28;20239;-68
2021/12/20 01:57:23;;;;;;;0.50;0.50;;;-1.10;92.00;;;;;;5076162;28;20169;-68
2021/12/20 01:59:48;;;;;;;0.50;0.50;;;-1.10;91.90;;;;;;5075802;28;20185;-68
2021/12/20 02:02:14;;;;;;;0.53;0.53;;;-1.30;91.90;;;;;;5075994;28;20216;-68
2021/12/20 02:04:45;;;;;;;0.60;0.60;;;-1.30;92.10;;;;;;5075906;28;20196;-68
2021/12/20 02:07:29;;;;;;;0.50;0.50;;;-1.40;92.10;;;;;;5076120;28;20536;-67
2021/12/20 02:09:55;;;;;;;0.50;0.50;;;-1.40;92.10;;;;;;5075782;28;20178;-68
2021/12/20 02:12:21;;;;;;;0.57;0.57;;;-1.50;92.20;;;;;;5075979;28;20202;-67
2021/12/20 02:14:46;;;;;;;0.40;0.40;;;-1.50;92.30;;;;;;5075698;28;20177;-68
2021/12/20 02:17:14;;;;;;;0.60;0.60;;;-1.50;92.30;;;;;;5075861;28;20583;-67
2021/12/20 02:19:40;;;;;;;0.52;0.52;;;-1.60;92.30;;;;;;5075549;28;20798;-67
2021/12/20 02:22:06;;;;;;;0.60;0.60;;;-1.70;92.20;;;;;;5075478;28;20201;-68
2021/12/20 02:24:31;;;;;;;0.50;0.50;;;-1.70;92.20;;;;;;5075518;28;20196;-68
2021/12/20 02:26:57;;;;;;;0.60;0.60;;;-1.80;92.30;;;;;;5075720;28;20192;-67
2021/12/20 02:29:39;;;;;;;0.60;0.60;;;-1.80;92.50;;;;;;5075214;28;20443;-67
2021/12/20 02:37:33;;;;;;;0.45;0.45;;;-1.90;93.00;;;;;;5075533;28;20263;-68
2021/12/20 02:39:58;;;;;;;0.50;0.50;;;-1.90;93.10;;;;;;5073810;28;20268;-68
2021/12/20 02:42:30;;;;;;;0.53;0.53;;;-2.00;93.20;;;;;;5075247;28;20212;-67
2021/12/20 02:45:14;;;;;;;0.68;0.68;;;-2.00;93.40;;;;;;5074765;28;20161;-68
2021/12/20 02:47:45;;;;;;;0.50;0.50;;;-2.00;93.50;;;;;;5075322;28;20172;-68
2021/12/20 02:50:13;;;;;;;0.70;0.70;;;-2.00;93.50;;;;;;5075037;28;20166;-68
2021/12/20 02:52:39;;;;;;;0.60;0.60;;;-2.10;93.40;;;;;;5075258;28;20189;-67
2021/12/20 02:55:07;;;;;;;0.60;0.60;;;-2.30;93.40;;;;;;5075134;28;20627;-68
2021/12/20 02:57:34;;;;;;;0.60;0.60;;;-2.30;93.60;;;;;;5074983;28;20181;-68
2021/12/20 03:00:00;;;;;;;0.70;0.70;;;-2.30;93.70;;;;;;5074549;28;20191;-68
2021/12/20 03:02:25;;;;;;;0.63;0.63;;;-2.30;94.10;;;;;;5073527;28;20212;-68
2021/12/20 03:04:51;;;;;;;0.60;0.60;;;-2.30;94.40;;;;;;5074699;28;20243;-68
2021/12/20 03:07:23;;;;;;;0.70;0.70;;;-2.20;94.30;;;;;;5074708;28;20627;-68
2021/12/20 03:09:54;;;;;;;0.40;0.40;;;-2.20;94.00;;;;;;5074674;28;20188;-67
2021/12/20 03:12:22;;;;;;;0.75;0.75;;;-2.20;93.90;;;;;;5073399;28;20689;-68
2021/12/20 03:14:50;;;;;;;0.60;0.60;;;-2.20;93.70;;;;;;5074543;28;20180;-68
2021/12/20 03:17:16;;;;;;;0.77;0.77;;;-2.30;93.40;;;;;;5074900;28;20176;-67
2021/12/20 03:19:42;;;;;;;0.47;0.47;;;-2.30;93.60;;;;;;5074263;28;20524;-68
2021/12/20 03:22:08;;;;;;;0.53;0.53;;;-2.30;93.90;;;;;;5074290;28;20228;-68
2021/12/20 03:24:34;;;;;;;0.70;0.70;;;-2.20;94.20;;;;;;5074319;28;20248;-67
2021/12/20 03:27:00;;;;;;;0.40;0.40;;;-2.30;93.90;;;;;;5074430;28;20173;-68
2021/12/20 03:29:25;;;;;;;0.50;0.50;;;-2.60;93.80;;;;;;5074051;28;20231;-68
2021/12/20 03:31:51;;;;;;;0.50;0.50;;;-2.70;94.20;;;;;;5074288;28;20172;-68
2021/12/20 03:34:18;;;;;;;0.50;0.50;;;-2.60;94.50;;;;;;5074384;28;20724;-68
2021/12/20 03:36:44;;;;;;;0.60;0.60;;;-2.50;94.50;;;;;;5074342;28;20166;-68
2021/12/20 03:39:09;;;;;;;0.80;0.80;;;-2.40;94.60;;;;;;5074147;28;20226;-68
2021/12/20 03:41:38;;;;;;;0.40;0.40;;;-2.40;94.40;;;;;;5074226;28;20173;-68
2021/12/20 03:44:06;;;;;;;0.60;0.60;;;-2.40;94.40;;;;;;5073968;28;20462;-68
2021/12/20 03:46:32;;;;;;;0.70;0.70;;;-2.30;94.20;;;;;;5074073;28;20166;-68
2021/12/20 03:48:59;;;;;;;0.40;0.40;;;-2.40;93.90;;;;;;5073757;28;20176;-68
2021/12/20 03:51:24;;;;;;;0.60;0.60;;;-2.40;94.10;;;;;;5074082;28;20172;-68
2021/12/20 03:53:50;;;;;;;0.70;0.70;;;-2.50;94.30;;;;;;5073826;28;20738;-68
2021/12/20 03:56:16;;;;;;;0.80;0.80;;;-2.40;94.50;;;;;;5073021;28;20258;-67
2021/12/20 03:58:41;;;;;;;0.50;0.50;;;-2.40;94.40;;;;;;5073672;28;20167;-69
2021/12/20 04:01:10;;;;;;;0.60;0.60;;;-2.40;94.40;;;;;;5073857;28;20206;-68
2021/12/20 04:03:36;;;;;;;0.60;0.60;;;-2.40;94.50;;;;;;5073530;28;20289;-68
2021/12/20 04:06:06;;;;;;;0.65;0.65;;;-2.40;94.10;;;;;;5073878;28;20249;-68
2021/12/20 04:08:32;;;;;;;0.80;0.80;;;-2.60;93.50;;;;;;5073627;28;20162;-68
2021/12/20 04:10:58;;;;;;;0.52;0.52;;;-2.70;93.30;;;;;;5073796;28;20183;-68
2021/12/20 04:13:26;;;;;;;0.50;0.50;;;-2.70;93.50;;;;;;5073696;28;20220;-68
2021/12/20 04:15:53;;;;;;;0.73;0.73;;;-2.70;93.80;;;;;;5073528;28;20169;-68
2021/12/20 04:18:19;;;;;;;0.60;0.60;;;-2.70;93.90;;;;;;5073296;28;20254;-68
2021/12/20 04:20:45;;;;;;;0.52;0.52;;;-2.60;94.30;;;;;;5073543;28;20256;-67
2021/12/20 04:23:11;;;;;;;0.47;0.47;;;-2.60;94.10;;;;;;5073287;28;20305;-67
2021/12/20 04:25:36;;;;;;;0.57;0.57;;;-2.70;94.00;;;;;;5073373;28;20408;-70
2021/12/20 04:28:02;;;;;;;0.50;0.50;;;-2.70;93.90;;;;;;5073420;28;20170;-68
2021/12/20 04:30:30;;;;;;;0.43;0.43;;;-2.90;93.80;;;;;;5073420;28;20165;-68
2021/12/20 04:32:56;;;;;;;0.70;0.70;;;-3.00;93.80;;;;;;5073666;28;20428;-68
2021/12/20 04:35:22;;;;;;;0.50;0.50;;;-3.00;93.70;;;;;;5073714;28;20696;-68
2021/12/20 04:37:49;;;;;;;0.50;0.50;;;-3.00;93.80;;;;;;5073484;28;20258;-68
2021/12/20 04:40:19;;;;;;;0.50;0.50;;;-3.00;94.20;;;;;;5073317;28;20412;-67
2021/12/20 04:42:47;;;;;;;0.50;0.50;;;-2.90;94.40;;;;;;5073360;28;20214;-67
2021/12/20 04:45:13;;;;;;;0.43;0.43;;;-2.80;94.60;;;;;;5073675;28;20624;-68
2021/12/20 04:47:39;;;;;;;0.50;0.50;;;-2.70;94.70;;;;;;5073474;28;20268;-67
2021/12/20 04:50:05;;;;;;;0.67;0.67;;;-2.60;94.70;;;;;;5073176;28;20408;-67
2021/12/20 04:52:31;;;;;;;0.80;0.80;;;-2.60;94.40;;;;;;5073113;28;20495;-68
2021/12/20 04:54:57;;;;;;;0.57;0.57;;;-2.70;94.20;;;;;;5073258;28;20640;-67
2021/12/20 04:57:23;;;;;;;0.77;0.77;;;-2.70;94.00;;;;;;5073303;28;20534;-68
2021/12/20 04:59:49;;;;;;;0.57;0.57;;;-2.70;93.90;;;;;;5072900;28;20433;-68
2021/12/20 05:02:14;;;;;;;0.63;0.63;;;-2.70;93.70;;;;;;5073018;28;20194;-68
2021/12/20 05:04:41;;;;;;;0.60;0.60;;;-2.70;93.90;;;;;;5073326;28;20811;-68
2021/12/20 05:07:07;;;;;;;0.50;0.50;;;-2.60;93.80;;;;;;5074046;28;20520;-67
2021/12/20 05:09:38;;;;;;;0.57;0.57;;;-2.60;93.70;;;;;;5076812;28;20166;-68
2021/12/20 05:12:12;;;;;;;0.57;0.57;;;-2.70;93.50;;;;;;5077067;28;20187;-68
2021/12/20 05:14:44;;;;;;;0.60;0.60;;;-2.70;93.60;;;;;;5077125;28;20227;-67
2021/12/20 05:17:12;;;;;;;0.68;0.68;;;-2.70;93.60;;;;;;5077018;28;20603;-68
2021/12/20 05:19:44;;;;;;;0.50;0.50;;;-2.70;93.30;;;;;;5076770;28;20210;-68
2021/12/20 05:22:10;;;;;;;0.60;0.60;;;-2.80;92.90;;;;;;5076670;28;20193;-67
2021/12/20 05:24:37;;;;;;;0.50;0.50;;;-2.80;92.90;;;;;;5076559;28;20246;-68
2021/12/20 05:27:03;;;;;;;0.80;0.80;;;-2.80;92.90;;;;;;5076651;28;20531;-68
2021/12/20 05:29:29;;;;;;;0.40;0.40;;;-2.90;92.80;;;;;;5076543;28;20173;-68
2021/12/20 05:31:55;;;;;;;0.60;0.60;;;-2.90;93.20;;;;;;5076544;28;20172;-68
2021/12/20 05:34:21;;;;;;;0.80;0.80;;;-2.90;93.40;;;;;;5077089;28;20407;-67
2021/12/20 05:36:47;;;;;;;0.70;0.70;;;-2.90;93.50;;;;;;5076618;28;20431;-68
2021/12/20 05:39:13;;;;;;;0.40;0.40;;;-2.90;93.90;;;;;;5076158;28;20207;-68
2021/12/20 05:41:39;;;;;;;0.60;0.60;;;-2.90;94.00;;;;;;5076430;28;20244;-68
2021/12/20 05:44:04;;;;;;;0.50;0.50;;;-2.90;93.80;;;;;;5076204;28;20295;-67
2021/12/20 05:46:30;;;;;;;0.60;0.60;;;-2.90;93.60;;;;;;5076405;28;20400;-67
2021/12/20 05:48:56;;;;;;;0.57;0.57;;;-2.80;93.70;;;;;;5076059;28;20251;-68
2021/12/20 05:51:22;;;;;;;0.50;0.50;;;-2.80;93.90;;;;;;5076305;28;20199;-68
2021/12/20 05:53:47;;;;;;;0.50;0.50;;;-2.70;94.00;;;;;;5076023;28;20667;-68
2021/12/20 05:56:13;;;;;;;0.50;0.50;;;-2.80;93.70;;;;;;5076112;28;20174;-68
2021/12/20 05:58:39;;;;;;;0.60;0.60;;;-2.80;93.60;;;;;;5075975;28;20230;-68
2021/12/20 06:01:05;;;;;;;0.60;0.60;;;-2.80;93.60;;;;;;5074698;28;20192;-68
2021/12/20 06:03:30;;;;;;;0.50;0.50;;;-2.80;93.40;;;;;;5075846;28;20464;-68
2021/12/20 06:05:56;;;;;;;0.50;0.50;;;-2.70;93.30;;;;;;5076090;28;20226;-68
2021/12/20 06:08:22;;;;;;;0.50;0.50;;;-2.80;93.70;;;;;;5075661;28;20400;-67
2021/12/20 06:10:47;;;;;;;0.60;0.60;;;-3.10;94.30;;;;;;5076036;28;20216;-67
2021/12/20 06:13:13;;;;;;;0.50;0.50;;;-2.90;94.70;;;;;;5075719;28;20197;-67
2021/12/20 06:15:38;;;;;;;0.40;0.40;;;-2.80;94.30;;;;;;5075827;28;20547;-68
2021/12/20 06:18:04;;;;;;;0.67;0.67;;;-2.90;93.60;;;;;;5075248;28;20172;-68
2021/12/20 06:20:30;;;;;;;0.50;0.50;;;-2.80;93.50;;;;;;5075178;28;20227;-68
2021/12/20 06:22:55;;;;;;;0.67;0.67;;;-2.70;94.30;;;;;;5075671;28;20209;-68
2021/12/20 06:25:21;;;;;;;0.60;0.60;;;-2.60;94.30;;;;;;5075550;28;20165;-68
2021/12/20 06:27:47;;;;;;;0.60;0.60;;;-2.60;93.60;;;;;;5075774;28;20200;-68
2021/12/20 06:30:13;;;;;;;1.10;1.10;;;-2.60;93.50;;;;;;5075374;28;20409;-68
2021/12/20 06:32:41;;;;;;;0.50;0.50;;;-2.50;93.50;;;;;;5075429;28;20514;-68
2021/12/20 06:35:07;;;;;;;0.55;0.55;;;-2.40;93.50;;;;;;5075361;28;20751;-67
2021/12/20 06:37:33;;;;;;;0.60;0.60;;;-2.40;93.70;;;;;;5075224;28;20296;-67
2021/12/20 06:40:00;;;;;;;0.60;0.60;;;-2.30;93.50;;;;;;5075149;28;20167;-68
2021/12/20 06:42:26;;;;;;;0.50;0.50;;;-2.20;93.20;;;;;;5075115;28;20206;-67
2021/12/20 06:44:52;;;;;;;0.50;0.50;;;-2.10;93.40;;;;;;5075138;28;20166;-67
2021/12/20 06:47:19;;;;;;;0.70;0.70;;;-1.90;93.60;;;;;;5075309;28;20177;-68
2021/12/20 06:49:44;;;;;;;0.40;0.40;;;-1.80;93.50;;;;;;5074806;28;20201;-68
2021/12/20 06:52:10;;;;;;;0.60;0.60;;;-1.70;93.30;;;;;;5075441;28;20224;-68
2021/12/20 06:54:36;;;;;;;0.50;0.50;;;-1.60;93.30;;;;;;5075177;28;20165;-67
2021/12/20 06:57:02;;;;;;;0.53;0.53;;;-1.50;93.20;;;;;;5074982;28;20173;-68
2021/12/20 06:59:28;;;;;;;0.57;0.57;;;-1.50;93.00;;;;;;5074745;28;20650;-67
2021/12/20 07:01:54;;;;;;;0.53;0.53;;;-1.60;93.60;;;;;;5075064;28;20183;-67
2021/12/20 07:04:20;;;;;;;0.40;0.40;;;-1.60;94.00;;;;;;5074704;28;20315;-68
2021/12/20 07:06:46;;;;;;;0.40;0.40;;;-1.30;94.60;;;;;;5074657;28;20204;-68
2021/12/20 07:09:12;;;;;;;0.45;0.45;;;-1.00;95.10;;;;;;5074633;28;20589;-67
2021/12/20 07:11:40;;;;;;;1.55;1.55;;;-0.90;94.60;;;;;;5074613;28;20244;-68
2021/12/20 07:14:06;;;;;;;0.52;0.52;;;-0.70;94.40;;;;;;5074677;28;20257;-68
2021/12/20 07:16:33;;;;;;;0.40;0.40;;;-0.40;93.90;;;;;;5074677;28;20173;-68
2021/12/20 07:19:00;;;;;;;0.30;0.30;;;-0.40;93.90;;;;;;5074337;28;20256;-67
2021/12/20 07:21:26;;;;;;;0.40;0.40;;;-0.30;94.90;;;;;;5074426;28;20180;-68
2021/12/20 07:23:52;;;;;;;0.30;0.30;;;-0.10;95.50;;;;;;5074173;28;20622;-68
2021/12/20 07:26:17;;;;;;;0.40;0.40;;;0.20;96.00;;;;;;5074405;28;20170;-67
2021/12/20 07:28:44;;;;;;;0.40;0.40;;;0.10;95.90;;;;;;5074062;28;20169;-68
2021/12/20 07:31:11;;;;;;;0.30;0.30;;;0.30;96.50;;;;;;5074158;28;20437;-68
2021/12/20 07:33:37;;;;;;;0.30;0.30;;;0.40;96.80;;;;;;5074163;28;20197;-68
2021/12/20 07:36:04;;;;;;;0.30;0.30;;;0.20;97.40;;;;;;5074100;28;20563;-68
2021/12/20 07:38:30;;;;;;;0.30;0.30;;;0.50;97.30;;;;;;5074076;28;20178;-68
2021/12/20 07:40:57;;;;;;;0.33;0.33;;;0.90;97.10;;;;;;5074130;28;20688;-68
2021/12/20 07:43:23;;;;;;;0.40;0.40;;;1.10;96.70;;;;;;5073871;28;20218;-68
2021/12/20 07:45:49;;;;;;;0.40;0.40;;;0.80;96.50;;;;;;5074097;28;20177;-68
2021/12/20 07:48:19;;;;;;;0.30;0.30;;;1.00;96.80;;;;;;5073963;28;20166;-68
2021/12/20 07:50:46;;;;;;;0.40;0.40;;;1.10;96.60;;;;;;5073811;28;20457;-68
2021/12/20 07:53:12;;;;;;;0.40;0.40;;;1.00;96.40;;;;;;5072543;28;20205;-68
2021/12/20 07:55:38;;;;;;;0.30;0.30;;;0.90;96.50;;;;;;5073989;28;20627;-68
2021/12/20 07:58:04;;;;;;;0.30;0.30;;;0.90;96.90;;;;;;5073751;28;20177;-68
2021/12/20 08:00:31;;;;;;;0.30;0.30;;;0.60;97.00;;;;;;5072281;28;20516;-68
2021/12/20 08:02:57;;;;;;;0.32;0.32;;;0.60;97.30;;;;;;5073564;28;20698;-68
2021/12/20 08:05:24;;;;;;;0.30;0.30;;;0.80;97.30;;;;;;5073688;28;20169;-67
2021/12/20 08:07:51;;;;;;;0.40;0.40;;;0.80;97.10;;;;;;5073613;28;20169;-68
2021/12/20 08:10:18;;;;;;;0.30;0.30;;;0.70;97.00;;;;;;5073576;28;20157;-68
2021/12/20 08:12:45;;;;;;;0.30;0.30;;;0.40;97.40;;;;;;5073635;28;20209;-68
2021/12/20 08:15:11;;;;;;;0.40;0.40;;;0.60;97.90;;;;;;5073527;28;20186;-68
2021/12/20 08:17:37;;;;;;;1.50;1.48;;;1.00;97.70;;;;;;5073572;28;20178;-68
2021/12/20 08:20:04;;;;;;;0.30;0.30;;;1.10;96.90;;;;;;5073432;28;20226;-68
2021/12/20 08:22:30;;;;;;;0.30;0.30;;;1.20;96.90;;;;;;5073402;28;20212;-68
2021/12/20 08:24:56;;;;;;;0.40;0.40;;;1.30;96.50;;;;;;5073553;28;20623;-68
2021/12/20 08:27:21;;;;;;;0.30;0.30;;;1.30;96.40;;;;;;5073420;28;20530;-68
2021/12/20 08:29:47;;;;;;;0.40;0.40;;;1.00;96.30;;;;;;5073194;28;20173;-68
2021/12/20 08:32:13;;;;;;;0.40;0.40;;;1.00;96.80;;;;;;5073558;28;20179;-67
2021/12/20 08:34:38;;;;;;;0.30;0.30;;;1.00;96.90;;;;;;5073568;28;20686;-68
2021/12/20 08:37:04;;;;;;;0.30;0.30;;;1.30;96.60;;;;;;5073442;28;20211;-68
2021/12/20 08:39:31;;;;;;;0.30;0.30;;;1.60;96.30;;;;;;5073253;28;20162;-68
2021/12/20 08:41:57;;;;;;;0.30;0.30;;;1.30;95.80;;;;;;5073790;28;20173;-68
2021/12/20 08:44:25;;;;;;;0.98;0.98;;;1.30;96.10;;;;;;5077421;28;20170;-68
2021/12/20 08:46:52;;;;;;;0.30;0.30;;;1.40;96.20;;;;;;5077641;28;20266;-68
2021/12/20 08:49:18;;;;;;;0.30;0.30;;;1.80;95.90;;;;;;5077365;28;20651;-68
2021/12/20 08:51:45;;;;;;;0.30;0.30;;;1.70;95.20;;;;;;5077614;28;20170;-68
2021/12/20 08:54:11;;;;;;;0.30;0.30;;;1.40;95.50;;;;;;5077328;28;20193;-68
2021/12/20 08:56:37;;;;;;;0.30;0.30;;;1.30;95.80;;;;;;5077409;28;20166;-68
2021/12/20 08:59:03;;;;;;;0.30;0.30;;;1.10;96.20;;;;;;5076947;28;20612;-68
2021/12/20 09:01:29;;;;;;;0.30;0.30;;;1.20;96.70;;;;;;5077411;28;20654;-68
2021/12/20 09:03:57;;;;;;;0.38;0.38;;;1.50;96.00;;;;;;5076913;28;20256;-68
2021/12/20 09:06:24;;;;;;;0.30;0.30;;;1.70;95.70;;;;;;5077132;28;20190;-67
2021/12/20 09:08:50;;;;;;;0.40;0.40;;;1.60;95.60;;;;;;5076886;28;20202;-68
2021/12/20 09:11:16;;;;;;;0.40;0.40;;;2.10;95.70;;;;;;5077132;28;20542;-69
2021/12/20 09:13:42;;;;;;;0.30;0.30;;;2.50;94.70;;;;;;5077030;28;20280;-68
2021/12/20 09:16:08;;;;;;;3.80;1.67;;;2.90;94.00;;;;;;5076871;28;20168;-68
2021/12/20 09:18:33;;;;;;;0.30;0.30;;;3.00;93.00;;;;;;5076599;28;20207;-68
2021/12/20 09:20:59;;;;;;;0.40;0.40;;;2.90;92.60;;;;;;5076827;28;20703;-68
2021/12/20 09:23:30;;;;;;;0.37;0.37;;;2.60;92.40;;;;;;5076712;28;20196;-68
2021/12/20 09:25:56;;;;;;;0.30;0.30;;;2.80;92.60;;;;;;5076894;28;20529;-68
2021/12/20 09:28:21;;;;;;;0.38;0.38;;;3.20;92.40;;;;;;5076869;28;20177;-68
2021/12/20 09:30:47;;;;;;;0.30;0.30;;;3.50;91.80;;;;;;5076791;28;20658;-68
2021/12/20 09:33:14;;;;;;;0.30;0.30;;;3.80;90.80;;;;;;5076410;28;20557;-67
2021/12/20 09:35:41;;;;;;;0.40;0.40;;;3.40;90.30;;;;;;5076601;28;20207;-68
2021/12/20 09:38:11;;;;;;;0.40;0.40;;;3.30;90.70;;;;;;5076453;28;20181;-68
2021/12/20 09:40:40;;;;;;;0.40;0.40;;;3.40;90.80;;;;;;5076482;28;20170;-68
2021/12/20 09:43:13;;;;;;;0.40;0.40;;;3.00;90.80;;;;;;5076132;28;20266;-68
2021/12/20 09:45:44;;;;;;;0.30;0.30;;;3.20;91.20;;;;;;5076516;28;20722;-68
2021/12/20 09:48:10;;;;;;;0.50;0.30;;;3.70;90.60;;;;;;5076298;28;20218;-68
2021/12/20 09:50:36;;;;;;;0.40;0.40;;;4.30;89.60;;;;;;5076322;28;20161;-68
2021/12/20 09:53:07;;;;;;;0.30;0.30;;;4.70;88.60;;;;;;5076189;28;20415;-68
2021/12/20 09:55:33;;;;;;;0.30;0.30;;;3.90;87.90;;;;;;5076317;28;20572;-68
2021/12/20 09:58:01;;;;;;;0.35;0.35;;;3.80;88.60;;;;;;5076284;28;20263;-68
2021/12/20 10:00:27;;;;;;;0.40;0.40;;;4.10;88.90;;;;;;5076039;28;20188;-68
2021/12/20 10:02:53;;;;;;;0.40;0.40;;;4.50;88.00;;;;;;5075816;28;20201;-68
2021/12/20 10:05:19;;;;;;;0.40;0.40;;;5.00;87.30;;;;;;5075996;28;20319;-68
2021/12/20 10:07:50;;;;;;;0.40;0.40;;;4.90;83.60;;;;;;5076108;28;20166;-68
2021/12/20 10:10:37;;;;;;;0.38;0.38;;;4.50;84.90;;;;;;5075793;28;20532;-68
2021/12/20 10:13:03;;;;;;;0.40;0.40;;;4.40;86.30;;;;;;5075726;28;20192;-68
2021/12/20 10:15:37;;;;;;;0.40;0.40;;;4.20;85.60;;;;;;5075938;28;20283;-68
2021/12/20 10:18:02;;;;;;;0.40;0.40;;;4.30;86.80;;;;;;5075674;28;20166;-68
2021/12/20 10:20:31;;;;;;;0.37;0.37;;;4.40;86.60;;;;;;5075678;28;20542;-68
2021/12/20 10:23:18;;;;;;;0.40;0.40;;;4.60;86.20;;;;;;5075466;28;20288;-68
2021/12/20 10:25:45;;;;;;;0.38;0.38;;;5.00;85.50;;;;;;5075642;28;20169;-68
2021/12/20 10:28:13;;;;;;;0.40;0.40;;;5.20;84.80;;;;;;5075450;28;20250;-68
2021/12/20 10:30:45;;;;;;;0.30;0.30;;;5.50;83.70;;;;;;5075593;28;20176;-68
2021/12/20 10:33:21;;;;;;;0.40;0.40;;;5.80;83.00;;;;;;5075346;28;20284;-68
2021/12/20 10:35:53;;;;;;;0.30;0.30;;;6.10;81.80;;;;;;5075643;28;20213;-69
2021/12/20 10:38:27;;;;;;;0.40;0.40;;;6.30;80.70;;;;;;5075390;28;20170;-68
2021/12/20 10:41:12;;;;;;;0.38;0.38;;;6.20;80.50;;;;;;5075474;28;20177;-68
2021/12/20 10:43:47;;;;;;;0.40;0.40;;;5.70;79.70;;;;;;5074786;28;20225;-68
2021/12/20 10:46:17;;;;;;;0.40;0.40;;;5.60;82.20;;;;;;5075388;28;20195;-68
2021/12/20 10:48:46;;;;;;;0.50;0.50;;;5.00;81.60;;;;;;5074967;28;20172;-68
2021/12/20 10:51:23;;;;;;;2.05;0.82;;;4.60;82.10;;;;;;5075281;28;20169;-68
2021/12/20 10:53:57;;;;;;;0.40;0.40;;;4.40;83.50;;;;;;5074965;28;20264;-68
2021/12/20 10:56:24;;;;;;;0.30;0.30;;;4.50;84.60;;;;;;5075178;28;20645;-68
2021/12/20 10:58:50;;;;;;;0.30;0.30;;;3.80;85.20;;;;;;5074759;28;20170;-68
2021/12/20 11:04:03;;;;;;;1.13;1.08;;;3.90;87.00;;;;;;5074910;28;20215;-68
2021/12/20 11:09:19;;;;;;;0.40;0.40;;;4.30;84.60;;;;;;5074805;28;20175;-68
2021/12/20 11:11:51;;;;;;;0.35;0.35;;;4.30;84.10;;;;;;5074805;28;20579;-68
2021/12/20 11:14:19;;;;;;;0.40;0.40;;;4.40;83.60;;;;;;5074486;28;20172;-68
2021/12/20 11:16:50;;;;;;;0.40;0.40;;;4.40;83.40;;;;;;5074971;28;20185;-68
2021/12/20 11:19:25;;;;;;;0.40;0.40;;;4.70;82.40;;;;;;5074675;28;20169;-68
2021/12/20 11:22:07;;;;;;;0.30;0.30;;;4.90;81.80;;;;;;5074455;28;20230;-68
2021/12/20 11:24:40;;;;;;;0.40;0.40;;;5.20;80.90;;;;;;5074379;28;20154;-68
2021/12/20 11:27:08;;;;;;;0.38;0.38;;;5.30;79.90;;;;;;5074619;28;20557;-68
2021/12/20 11:29:35;;;;;;;0.40;0.40;;;5.10;79.40;;;;;;5074113;28;20708;-68
2021/12/20 11:32:02;;;;;;;0.40;0.40;;;5.10;79.60;;;;;;5074507;28;20216;-68
2021/12/20 11:34:29;;;;;;;0.40;0.40;;;4.90;79.80;;;;;;5074383;28;20770;-68
2021/12/20 11:36:55;;;;;;;0.40;0.40;;;5.00;80.90;;;;;;5074307;28;20173;-68
2021/12/20 11:39:21;;;;;;;0.40;0.40;;;5.30;79.60;;;;;;5073910;28;20181;-67
2021/12/20 11:41:47;;;;;;;0.32;0.32;;;5.50;78.50;;;;;;5073948;28;20184;-68
2021/12/20 11:44:19;;;;;;;0.30;0.30;;;5.70;78.00;;;;;;5073914;28;20200;-68
2021/12/20 11:47:02;;;;;;;0.40;0.40;;;5.90;77.90;;;;;;5073972;28;20162;-69
2021/12/20 11:49:28;;;;;;;0.40;0.40;;;6.10;77.10;;;;;;5073809;28;20176;-68
2021/12/20 11:52:08;;;;;;;0.30;0.30;;;6.20;75.90;;;;;;5074004;28;20694;-68
2021/12/20 11:54:38;;;;;;;0.40;0.40;;;6.00;77.20;;;;;;5074186;28;20169;-68
2021/12/20 11:57:04;;;;;;;0.40;0.40;;;5.20;78.80;;;;;;5074218;28;20521;-68
2021/12/20 11:59:49;;;;;;;0.40;0.40;;;5.20;78.30;;;;;;5073552;28;20208;-68
2021/12/20 12:02:26;;;;;;;0.38;0.38;;;5.50;78.80;;;;;;5073735;28;20654;-68
2021/12/20 12:05:07;;;;;;;0.40;0.40;;;5.60;79.00;;;;;;5073968;28;20214;-68
2021/12/20 12:07:36;;;;;;;0.40;0.40;;;5.40;78.20;;;;;;5073787;28;20252;-68
2021/12/20 12:10:04;;;;;;;0.40;0.40;;;5.30;79.20;;;;;;5073644;28;20546;-68
2021/12/20 12:12:31;;;;;;;0.40;0.40;;;5.40;78.50;;;;;;5073686;28;20320;-67
2021/12/20 12:15:04;;;;;;;0.35;0.35;;;5.00;78.10;;;;;;5073780;28;20208;-68
2021/12/20 12:17:52;;;;;;;0.30;0.30;;;4.70;80.00;;;;;;5072667;28;20634;-68
2021/12/20 12:20:51;;;;;;;0.30;0.30;;;4.60;79.80;;;;;;5073625;28;20178;-68
2021/12/20 12:23:26;;;;;;;0.30;0.30;;;4.60;80.00;;;;;;5073398;28;20204;-68
2021/12/20 12:25:57;;;;;;;0.40;0.40;;;4.60;80.80;;;;;;5073723;28;20180;-68
2021/12/20 12:28:25;;;;;;;0.32;0.32;;;4.70;80.60;;;;;;5073455;28;20165;-68
2021/12/20 12:31:05;;;;;;;0.40;0.40;;;4.70;79.90;;;;;;5073533;28;20179;-68
2021/12/20 12:33:37;;;;;;;0.40;0.40;;;4.10;80.10;;;;;;5073316;28;20201;-68
2021/12/20 12:36:25;;;;;;;0.30;0.30;;;3.70;81.40;;;;;;5073570;28;20184;-68
2021/12/20 12:38:54;;;;;;;0.30;0.30;;;3.20;83.90;;;;;;5072917;28;20245;-68
2021/12/20 12:41:24;;;;;;;0.40;0.40;;;3.10;85.60;;;;;;5073420;28;20171;-68
2021/12/20 12:44:01;;;;;;;0.30;0.30;;;3.30;85.00;;;;;;5073055;28;20604;-67
2021/12/20 12:46:36;;;;;;;0.30;0.30;;;3.40;84.40;;;;;;5073684;28;20165;-68
2021/12/20 12:49:20;;;;;;;0.30;0.30;;;3.30;84.40;;;;;;5073361;28;20521;-68
2021/12/20 12:51:53;;;;;;;0.30;0.30;;;3.10;84.20;;;;;;5073278;28;20165;-68
2021/12/20 12:54:40;;;;;;;0.40;0.40;;;2.80;85.10;;;;;;5073176;28;20240;-68
2021/12/20 12:57:12;;;;;;;0.40;0.40;;;2.40;86.80;;;;;;5072022;28;20768;-68
2021/12/20 12:59:56;;;;;;;0.30;0.30;;;2.50;87.20;;;;;;5072836;28;20199;-68
2021/12/20 13:02:28;;;;;;;0.30;0.30;;;2.10;87.80;;;;;;5073228;28;20187;-68
2021/12/20 13:05:03;;;;;;;0.40;0.40;;;2.20;88.80;;;;;;5073060;28;20214;-68
2021/12/20 13:08:05;;;;;;;0.30;0.30;;;2.20;88.40;;;;;;5073278;28;20226;-68
2021/12/20 13:10:39;;;;;;;0.30;0.30;;;2.50;88.30;;;;;;5072929;28;20233;-68
2021/12/20 13:13:18;;;;;;;0.40;0.40;;;2.70;87.20;;;;;;5073010;28;20287;-68